createdAt,value
2022-09-07T00:04:45.953Z,4.60
2022-09-07T00:07:16.332Z,5.40
2022-09-07T00:09:46.443Z,7.50
2022-09-07T00:14:46.276Z,6.80
2022-09-07T00:17:17.082Z,6.80
2022-09-07T00:19:47.321Z,6.00
2022-09-07T00:22:17.248Z,5.10
2022-09-07T00:24:47.342Z,6.30
2022-09-07T00:27:16.554Z,6.10
2022-09-07T00:29:46.463Z,6.60
2022-09-07T00:32:16.584Z,7.10
2022-09-07T00:34:46.444Z,6.90
2022-09-07T00:37:15.603Z,6.70
2022-09-07T00:39:46.121Z,6.50
2022-09-07T00:42:20.900Z,5.20
2022-09-07T00:45:07.648Z,5.20
2022-09-07T00:48:06.671Z,6.90
2022-09-07T00:50:43.751Z,5.20
2022-09-07T00:53:23.299Z,5.00
2022-09-07T00:55:54.760Z,5.50
2022-09-07T00:58:25.747Z,6.00
2022-09-07T01:00:56.559Z,5.80
2022-09-07T01:03:34.610Z,7.60
2022-09-07T01:06:16.414Z,5.80
2022-09-07T01:08:50.464Z,8.00
2022-09-07T01:11:23.627Z,6.50
2022-09-07T01:13:54.980Z,6.30
2022-09-07T01:16:45.965Z,8.20
2022-09-07T01:19:27.480Z,7.80
2022-09-07T01:22:41.802Z,6.10
2022-09-07T01:25:15.616Z,7.90
2022-09-07T01:28:03.946Z,8.70
2022-09-07T01:30:38.271Z,8.70
2022-09-07T01:33:33.582Z,5.90
2022-09-07T01:36:25.124Z,7.00
2022-09-07T01:38:59.833Z,6.10
2022-09-07T01:41:41.719Z,5.70
2022-09-07T01:44:21.348Z,6.10
2022-09-07T01:46:58.427Z,6.10
2022-09-07T01:49:36.362Z,6.20
2022-09-07T01:52:26.375Z,7.60
2022-09-07T01:55:17.556Z,6.20
2022-09-07T01:57:54.730Z,7.80
2022-09-07T02:00:25.025Z,6.10
2022-09-07T02:03:19.251Z,4.90
2022-09-07T02:06:10.143Z,6.00
2022-09-07T02:08:50.720Z,5.90
2022-09-07T02:11:25.863Z,6.90
2022-09-07T02:14:01.350Z,6.60
2022-09-07T02:16:33.865Z,6.70
2022-09-07T02:19:11.570Z,7.10
2022-09-07T02:21:55.243Z,5.70
2022-09-07T02:24:32.180Z,5.90
2022-09-07T02:27:09.085Z,6.20
2022-09-07T02:29:38.870Z,5.20
2022-09-07T02:32:08.856Z,5.60
2022-09-07T02:34:38.555Z,6.40
2022-09-07T02:37:10.433Z,6.30
2022-09-07T02:39:40.086Z,6.80
2022-09-07T02:42:10.383Z,6.30
2022-09-07T02:44:42.916Z,5.60
2022-09-07T02:47:36.638Z,6.70
2022-09-07T02:50:24.464Z,5.40
2022-09-07T02:53:07.707Z,6.90
2022-09-07T02:55:58.309Z,5.50
2022-09-07T02:58:51.163Z,6.10
2022-09-07T03:01:38.491Z,7.30
2022-09-07T03:04:29.347Z,6.20
2022-09-07T03:07:06.146Z,5.90
2022-09-07T03:09:40.559Z,6.40
2022-09-07T03:12:11.445Z,9.30
2022-09-07T03:14:43.271Z,10.90
2022-09-07T03:17:13.835Z,11.00
2022-09-07T03:19:43.538Z,8.50
2022-09-07T03:24:43.974Z,8.80
2022-09-07T03:27:13.263Z,8.80
2022-09-07T03:29:43.281Z,8.20
2022-09-07T03:32:12.482Z,8.40
2022-09-07T03:34:42.060Z,7.20
2022-09-07T03:37:11.156Z,6.10
2022-09-07T03:39:40.588Z,7.80
2022-09-07T03:42:10.174Z,8.10
2022-09-07T03:44:39.285Z,10.80
2022-09-07T03:49:39.354Z,7.30
2022-09-07T03:52:09.116Z,7.70
2022-09-07T03:57:09.559Z,8.30
2022-09-07T04:02:08.302Z,8.00
2022-09-07T04:04:37.462Z,7.10
2022-09-07T04:07:07.379Z,8.40
2022-09-07T04:12:07.707Z,8.00
2022-09-07T04:14:36.805Z,6.70
2022-09-07T04:17:06.386Z,8.00
2022-09-07T04:19:35.350Z,7.10
2022-09-07T04:22:04.514Z,8.10
2022-09-07T04:24:34.392Z,7.70
2022-09-07T04:27:03.679Z,6.40
2022-09-07T04:29:33.013Z,7.60
2022-09-07T04:32:02.730Z,8.60
2022-09-07T04:34:31.726Z,8.00
2022-09-07T04:37:00.807Z,8.70
2022-09-07T04:39:29.953Z,11.80
2022-09-07T04:41:59.092Z,10.20
2022-09-07T04:44:28.404Z,8.90
2022-09-07T04:46:57.491Z,9.40
2022-09-07T04:49:27.004Z,9.40
2022-09-07T04:51:56.362Z,9.00
2022-09-07T04:54:26.843Z,11.30
2022-09-07T04:56:56.121Z,8.50
2022-09-07T04:59:27.784Z,10.10
2022-09-07T05:01:57.311Z,10.00
2022-09-07T05:04:26.383Z,9.00
2022-09-07T05:06:56.094Z,8.10
2022-09-07T05:09:25.285Z,11.60
2022-09-07T05:11:55.244Z,11.10
2022-09-07T05:14:24.709Z,7.90
2022-09-07T05:16:53.932Z,9.80
2022-09-07T05:19:23.509Z,9.40
2022-09-07T05:21:52.602Z,6.10
2022-09-07T05:24:21.604Z,7.90
2022-09-07T05:26:50.698Z,6.80
2022-09-07T05:32:09.874Z,11.80
2022-09-07T05:34:39.085Z,7.50
2022-09-07T05:37:09.502Z,8.60
2022-09-07T05:39:38.641Z,9.50
2022-09-07T05:42:08.089Z,8.90
2022-09-07T05:44:45.791Z,9.30
2022-09-07T05:47:15.716Z,9.70
2022-09-07T05:49:44.883Z,8.90
2022-09-07T05:52:14.108Z,7.90
2022-09-07T05:54:45.146Z,6.60
2022-09-07T05:57:15.889Z,6.20
2022-09-07T05:59:44.848Z,10.30
2022-09-07T06:02:15.543Z,11.00
2022-09-07T06:04:44.893Z,9.20
2022-09-07T06:07:23.199Z,8.90
2022-09-07T06:12:49.132Z,9.00
2022-09-07T06:15:19.321Z,9.00
2022-09-07T06:17:49.304Z,8.30
2022-09-07T06:20:18.286Z,9.00
2022-09-07T06:22:47.278Z,7.20
2022-09-07T06:25:16.885Z,7.40
2022-09-07T06:27:49.073Z,7.80
2022-09-07T06:30:18.668Z,6.80
2022-09-07T06:32:48.067Z,9.00
2022-09-07T06:35:16.954Z,8.30
2022-09-07T06:37:45.945Z,7.30
2022-09-07T06:40:15.712Z,7.30
2022-09-07T06:42:45.774Z,8.60
2022-09-07T06:45:17.223Z,7.80
2022-09-07T06:47:47.245Z,8.80
2022-09-07T06:50:17.551Z,10.00
2022-09-07T06:55:43.909Z,8.80
2022-09-07T06:58:13.117Z,6.60
2022-09-07T07:00:42.406Z,10.40
2022-09-07T07:03:11.599Z,7.60
2022-09-07T07:05:40.708Z,7.70
2022-09-07T07:08:10.421Z,8.10
2022-09-07T07:10:40.031Z,11.10
2022-09-07T07:13:09.115Z,11.20
2022-09-07T07:15:39.234Z,7.30
2022-09-07T07:18:20.404Z,9.20
2022-09-07T07:20:51.053Z,6.60
2022-09-07T07:23:20.136Z,9.30
2022-09-07T07:25:49.235Z,11.20
2022-09-07T07:31:12.056Z,7.80
2022-09-07T07:33:43.707Z,8.00
2022-09-07T07:36:17.055Z,9.30
2022-09-07T07:39:03.435Z,10.50
2022-09-07T07:44:22.636Z,9.20
2022-09-07T07:46:52.862Z,9.00
2022-09-07T07:49:22.061Z,10.00
2022-09-07T07:54:39.599Z,7.30
2022-09-07T07:57:08.487Z,7.60
2022-09-07T07:59:37.413Z,8.00
2022-09-07T08:02:09.078Z,10.40
2022-09-07T08:04:38.330Z,6.40
2022-09-07T08:07:10.715Z,6.60
2022-09-07T08:09:42.980Z,9.40
2022-09-07T08:12:16.993Z,8.80
2022-09-07T08:14:48.229Z,7.90
2022-09-07T08:17:18.150Z,6.90
2022-09-07T08:22:15.520Z,10.30
2022-09-07T08:24:44.818Z,10.30
2022-09-07T08:27:14.016Z,6.90
2022-09-07T08:29:43.310Z,6.90
2022-09-07T08:32:12.001Z,7.40
2022-09-07T08:34:41.203Z,6.70
2022-09-07T08:37:10.501Z,7.60
2022-09-07T08:39:39.125Z,7.30
2022-09-07T08:42:16.775Z,6.10
2022-09-07T08:45:01.030Z,6.60
2022-09-07T08:47:46.512Z,5.90
2022-09-07T08:50:29.124Z,6.00
2022-09-07T08:53:08.663Z,7.70
2022-09-07T08:55:41.526Z,6.00
2022-09-07T08:58:32.684Z,7.30
2022-09-07T09:01:36.494Z,5.40
2022-09-07T09:06:11.115Z,5.40
2022-09-07T09:07:14.078Z,6.20
2022-09-07T09:09:55.443Z,5.60
2022-09-07T09:12:55.684Z,6.00
2022-09-07T09:15:31.371Z,6.10
2022-09-07T09:18:00.019Z,6.00
2022-09-07T09:20:54.611Z,5.20
2022-09-07T09:23:27.126Z,5.80
2022-09-07T09:26:02.225Z,4.50
2022-09-07T09:28:32.442Z,5.30
2022-09-07T09:31:01.575Z,5.10
2022-09-07T09:33:30.324Z,5.10
2022-09-07T09:36:02.496Z,5.50
2022-09-07T09:38:37.144Z,5.60
2022-09-07T09:41:15.199Z,5.60
2022-09-07T09:43:55.554Z,6.00
2022-09-07T09:46:34.875Z,6.30
2022-09-07T09:54:43.896Z,4.60
2022-09-07T09:57:17.341Z,5.30
2022-09-07T10:00:06.954Z,6.50
2022-09-07T10:05:42.624Z,5.10
2022-09-07T10:08:30.039Z,6.90
2022-09-07T10:11:00.785Z,4.90
2022-09-07T10:13:32.085Z,6.10
2022-09-07T10:16:05.625Z,4.20
2022-09-07T10:18:57.254Z,4.70
2022-09-07T10:21:31.952Z,5.60
2022-09-07T10:24:06.910Z,5.60
2022-09-07T10:26:38.290Z,5.80
2022-09-07T10:29:29.579Z,5.70
2022-09-07T10:32:10.036Z,5.90
2022-09-07T10:34:47.357Z,6.70
2022-09-07T10:37:24.720Z,6.90
2022-09-07T10:40:02.793Z,4.80
2022-09-07T10:42:35.951Z,7.00
2022-09-07T10:45:16.576Z,7.00
2022-09-07T10:47:57.031Z,5.70
2022-09-07T10:50:49.068Z,6.10
2022-09-07T10:53:40.740Z,6.10
2022-09-07T10:56:35.179Z,5.20
2022-09-07T11:06:05.858Z,6.20
2022-09-07T11:09:16.562Z,5.40
2022-09-07T11:12:05.904Z,6.10
2022-09-07T11:14:45.642Z,5.20
2022-09-07T11:17:28.152Z,5.40
2022-09-07T11:20:08.970Z,4.80
2022-09-07T11:23:48.362Z,4.80
2022-09-07T11:26:37.533Z,6.60
2022-09-07T11:29:31.159Z,6.10
2022-09-07T11:32:32.162Z,5.90
2022-09-07T11:35:21.414Z,6.20
2022-09-07T11:37:59.642Z,5.30
2022-09-07T11:40:42.545Z,4.90
2022-09-07T11:43:23.233Z,5.00
2022-09-07T11:45:58.072Z,6.40
2022-09-07T11:48:33.998Z,6.90
2022-09-07T11:51:09.957Z,6.30
2022-09-07T11:53:46.216Z,6.80
2022-09-07T11:56:22.104Z,4.70
2022-09-07T11:59:16.048Z,6.30
2022-09-07T12:01:54.592Z,5.00
2022-09-07T12:05:10.555Z,5.60
2022-09-07T12:08:05.390Z,4.80
2022-09-07T12:11:03.531Z,6.00
2022-09-07T12:13:47.987Z,8.60
2022-09-07T12:16:30.291Z,6.30
2022-09-07T12:19:17.403Z,6.10
2022-09-07T12:21:59.641Z,8.50
2022-09-07T12:24:48.876Z,7.20
2022-09-07T12:27:20.246Z,6.30
2022-09-07T12:30:10.009Z,6.10
2022-09-07T12:33:04.770Z,9.50
2022-09-07T12:35:33.697Z,5.40
2022-09-07T12:38:30.898Z,6.10
2022-09-07T12:41:20.836Z,7.50
2022-09-07T12:43:49.422Z,5.90
2022-09-07T12:46:44.863Z,5.80
2022-09-07T12:49:56.525Z,6.70
2022-09-07T12:52:43.449Z,5.70
2022-09-07T12:55:28.530Z,5.50
2022-09-07T12:58:09.989Z,4.90
2022-09-07T13:00:38.469Z,5.70
2022-09-07T13:09:26.960Z,6.00
2022-09-07T13:11:57.038Z,5.00
2022-09-07T13:14:30.071Z,5.60
2022-09-07T13:17:32.996Z,5.10
2022-09-07T13:20:01.776Z,4.10
2022-09-07T13:22:30.630Z,3.60
2022-09-07T13:25:01.814Z,4.70
2022-09-07T13:27:46.968Z,4.30
2022-09-07T13:30:15.638Z,4.40
2022-09-07T13:35:36.890Z,5.10
2022-09-07T13:38:05.957Z,5.40
2022-09-07T13:43:18.377Z,4.70
2022-09-07T13:45:55.846Z,4.90
2022-09-07T13:48:42.301Z,4.80
2022-09-07T13:51:13.719Z,4.50
2022-09-07T13:53:45.175Z,4.30
2022-09-07T13:56:21.851Z,4.10
2022-09-07T13:58:53.192Z,4.80
2022-09-07T14:01:26.722Z,4.50
2022-09-07T14:04:09.716Z,4.50
2022-09-07T14:06:39.321Z,4.70
2022-09-07T14:09:14.050Z,4.50
2022-09-07T14:11:52.711Z,4.50
2022-09-07T14:14:30.667Z,4.30
2022-09-07T14:17:05.175Z,4.80
2022-09-07T14:19:40.129Z,4.90
2022-09-07T14:22:32.054Z,5.00
2022-09-07T14:25:03.435Z,5.50
2022-09-07T14:27:33.625Z,4.80
2022-09-07T14:30:34.801Z,4.60
2022-09-07T14:33:11.042Z,5.00
2022-09-07T14:35:41.556Z,4.80
2022-09-07T14:46:26.996Z,5.90
2022-09-07T14:49:03.254Z,4.40
2022-09-07T14:51:36.668Z,5.20
2022-09-07T14:54:17.512Z,5.90
2022-09-07T14:57:03.622Z,6.10
2022-09-07T14:59:45.014Z,4.70
2022-09-07T15:02:24.317Z,4.90
2022-09-07T15:05:17.908Z,5.40
2022-09-07T15:07:56.954Z,6.10
2022-09-07T15:10:29.574Z,5.10
2022-09-07T15:13:32.572Z,5.70
2022-09-07T15:16:04.571Z,5.90
2022-09-07T15:18:56.593Z,5.30
2022-09-07T15:21:27.841Z,5.70
2022-09-07T15:23:58.962Z,5.60
2022-09-07T15:29:29.172Z,5.10
2022-09-07T15:32:03.887Z,5.00
2022-09-07T15:34:34.720Z,6.50
2022-09-07T15:38:01.060Z,5.00
2022-09-07T15:39:53.627Z,4.50
2022-09-07T15:45:12.210Z,6.40
2022-09-07T15:47:46.166Z,4.70
2022-09-07T15:50:17.535Z,5.90
2022-09-07T15:52:46.803Z,6.00
2022-09-07T15:55:17.552Z,5.80
2022-09-07T15:57:54.559Z,6.00
2022-09-07T16:00:28.729Z,5.80
2022-09-07T16:03:06.446Z,5.10
2022-09-07T16:05:36.123Z,5.80
2022-09-07T16:10:55.790Z,5.60
2022-09-07T16:13:25.737Z,4.90
2022-09-07T16:15:54.627Z,5.60
2022-09-07T16:18:23.769Z,4.20
2022-09-07T16:20:52.940Z,5.40
2022-09-07T16:23:22.013Z,5.10
2022-09-07T16:26:01.433Z,4.30
2022-09-07T16:28:30.608Z,5.90
2022-09-07T16:31:04.253Z,6.20
2022-09-07T16:33:37.021Z,5.90
2022-09-07T16:36:17.087Z,5.80
2022-09-07T16:38:48.813Z,7.10
2022-09-07T16:41:20.726Z,4.90
2022-09-07T16:43:50.614Z,5.80
2022-09-07T16:51:21.456Z,5.80
2022-09-07T16:53:52.013Z,4.90
2022-09-07T16:56:23.898Z,6.20
2022-09-07T16:58:56.645Z,5.40
2022-09-07T17:01:30.276Z,5.30
2022-09-07T17:03:59.888Z,5.70
2022-09-07T17:06:31.306Z,6.50
2022-09-07T17:09:00.634Z,6.70
2022-09-07T17:11:37.058Z,7.70
2022-09-07T17:14:06.801Z,12.10
2022-09-07T17:16:38.614Z,9.80
2022-09-07T17:22:01.089Z,7.20
2022-09-07T17:24:32.206Z,10.60
2022-09-07T17:27:01.976Z,9.70
2022-09-07T17:29:33.915Z,10.80
2022-09-07T17:34:56.085Z,9.30
2022-09-07T17:37:25.669Z,9.70
2022-09-07T17:39:54.947Z,10.10
2022-09-07T17:42:26.305Z,10.60
2022-09-07T17:45:14.576Z,9.80
2022-09-07T17:47:43.157Z,8.10
2022-09-07T17:50:12.456Z,11.10
2022-09-07T17:52:45.696Z,9.60
2022-09-07T17:55:15.087Z,9.80
2022-09-07T17:57:43.946Z,9.50
2022-09-07T18:00:13.603Z,14.30
2022-09-07T18:02:42.545Z,17.30
2022-09-07T18:05:11.405Z,20.50
2022-09-07T18:07:40.219Z,23.40
2022-09-07T18:10:10.254Z,18.70
2022-09-07T18:12:38.920Z,14.40
2022-09-07T18:15:08.066Z,14.70
2022-09-07T18:17:36.701Z,15.80
2022-09-07T18:20:06.614Z,13.00
2022-09-07T18:22:35.507Z,15.10
2022-09-07T18:25:07.253Z,15.10
2022-09-07T18:27:40.438Z,14.20
2022-09-07T18:30:11.184Z,14.80
2022-09-07T18:32:39.975Z,13.40
2022-09-07T18:35:09.524Z,11.40
2022-09-07T18:37:39.543Z,13.30
2022-09-07T18:40:09.270Z,16.00
2022-09-07T18:42:38.807Z,13.00
2022-09-07T18:47:59.532Z,13.10
2022-09-07T18:50:28.323Z,12.20
2022-09-07T18:53:04.202Z,13.20
2022-09-07T18:55:43.106Z,11.70
2022-09-07T18:58:11.792Z,17.40
2022-09-07T19:03:14.792Z,17.20
2022-09-07T19:05:52.547Z,16.70
2022-09-07T19:08:21.987Z,15.90
2022-09-07T19:10:50.573Z,19.80
2022-09-07T19:13:19.359Z,19.00
2022-09-07T19:15:47.943Z,18.10
2022-09-07T19:18:16.532Z,16.90
2022-09-07T19:20:45.215Z,38.40
2022-09-07T19:23:14.204Z,56.20
2022-09-07T19:25:42.791Z,48.70
2022-09-07T19:28:11.788Z,33.90
2022-09-07T19:30:40.566Z,34.20
2022-09-07T19:33:12.437Z,33.90
2022-09-07T19:35:41.319Z,46.20
2022-09-07T19:38:10.620Z,67.10
2022-09-07T19:40:40.226Z,45.40
2022-09-07T19:43:09.119Z,55.80
2022-09-07T19:45:40.597Z,57.20
2022-09-07T19:48:09.250Z,43.60
2022-09-07T19:50:38.355Z,41.80
2022-09-07T19:53:07.137Z,36.20
2022-09-07T19:55:35.828Z,32.00
2022-09-07T19:58:05.129Z,36.10
2022-09-07T20:00:34.636Z,34.00
2022-09-07T20:03:03.417Z,25.50
2022-09-07T20:05:32.717Z,25.40
2022-09-07T20:08:02.736Z,21.00
2022-09-07T20:10:33.167Z,21.10
2022-09-07T20:13:02.697Z,18.30
2022-09-07T20:15:31.577Z,22.00
2022-09-07T20:18:01.066Z,21.40
2022-09-07T20:20:29.760Z,21.50
2022-09-07T20:22:58.638Z,17.10
2022-09-07T20:25:27.728Z,13.70
2022-09-07T20:27:56.928Z,22.00
2022-09-07T20:30:28.512Z,21.30
2022-09-07T20:32:59.216Z,19.40
2022-09-07T20:35:27.795Z,16.20
2022-09-07T20:37:56.593Z,16.70
2022-09-07T20:40:25.488Z,18.80
2022-09-07T20:42:58.306Z,16.20
2022-09-07T20:45:31.822Z,12.60
2022-09-07T20:48:00.935Z,10.50
2022-09-07T20:50:29.849Z,14.70
2022-09-07T20:52:58.734Z,16.20
2022-09-07T20:55:27.522Z,15.10
2022-09-07T20:57:56.930Z,13.20
2022-09-07T21:00:26.436Z,13.10
2022-09-07T21:02:55.016Z,13.40
2022-09-07T21:05:24.213Z,13.10
2022-09-07T21:07:53.419Z,13.10
2022-09-07T21:10:22.402Z,12.70
2022-09-07T21:12:53.549Z,12.60
2022-09-07T21:15:22.235Z,16.20
2022-09-07T21:17:51.434Z,22.90
2022-09-07T21:20:20.430Z,26.60
2022-09-07T21:22:49.208Z,26.30
2022-09-07T21:25:18.101Z,23.10
2022-09-07T21:27:47.192Z,29.30
2022-09-07T21:30:17.413Z,28.90
2022-09-07T21:35:19.915Z,21.40
2022-09-07T21:37:49.411Z,17.70
2022-09-07T21:40:18.622Z,14.00
2022-09-07T21:42:47.504Z,16.30
2022-09-07T21:45:17.315Z,17.20
2022-09-07T21:47:46.203Z,19.10
2022-09-07T21:50:15.510Z,18.20
2022-09-07T21:52:44.401Z,17.60
2022-09-07T21:55:13.898Z,11.40
2022-09-07T21:57:42.793Z,14.40
2022-09-07T22:00:13.151Z,15.80
2022-09-07T22:02:43.442Z,15.00
2022-09-07T22:05:13.046Z,25.80
2022-09-07T22:07:42.139Z,17.80
2022-09-07T22:10:11.048Z,19.90
2022-09-07T22:12:40.325Z,19.00
2022-09-07T22:15:09.941Z,18.80
2022-09-07T22:17:42.236Z,16.30
2022-09-07T22:20:14.191Z,17.70
2022-09-07T22:22:43.578Z,14.00
2022-09-07T22:25:14.170Z,12.50
2022-09-07T22:27:43.309Z,12.70
2022-09-07T22:30:12.957Z,12.70
2022-09-07T22:32:49.280Z,17.90
2022-09-07T22:35:19.849Z,13.20
2022-09-07T22:37:48.593Z,17.30
2022-09-07T22:40:18.983Z,13.80
2022-09-07T22:42:48.225Z,15.80
2022-09-07T22:45:17.831Z,18.30
2022-09-07T22:47:48.019Z,13.80
2022-09-07T22:50:17.238Z,14.60
2022-09-07T22:52:47.845Z,19.00
2022-09-07T22:55:17.297Z,18.10
2022-09-07T22:57:47.429Z,20.50
2022-09-07T23:00:17.238Z,17.20
2022-09-07T23:05:17.622Z,19.10
2022-09-07T23:07:49.210Z,18.30
2022-09-07T23:10:18.208Z,16.50
2022-09-07T23:12:48.025Z,14.30
2022-09-07T23:15:17.941Z,15.60
2022-09-07T23:17:46.911Z,14.50
2022-09-07T23:20:17.484Z,17.50
2022-09-07T23:22:47.602Z,15.40
2022-09-07T23:25:17.292Z,17.30
2022-09-07T23:27:47.860Z,14.20
2022-09-07T23:30:17.984Z,14.70
2022-09-07T23:35:18.691Z,13.30
2022-09-07T23:37:47.775Z,16.50
2022-09-07T23:40:21.814Z,13.00
2022-09-07T23:42:51.674Z,14.80
2022-09-07T23:45:22.049Z,12.90
2022-09-07T23:47:51.838Z,11.90
2022-09-07T23:52:52.442Z,12.90
2022-09-07T23:55:22.849Z,14.80
2022-09-07T23:57:52.829Z,14.90
